Time;durP1;ratioP1;P1;durP2;ratioP2;P2;SDS_P1;SDS_P2;PMS_P1;PMS_P2;Temp;Humidity;BMP_temperature;BMP_pressure;BME280_temperature;BME280_humidity;BME280_pressure;Samples;Min_cycle;Max_cycle;Signal;HPM_P1;HPM_P2
2021/09/14 00:02:34;;;;;;;18.20;11.30;;;;;;;16.66;100.00;100088.56;6281827;28;20135;-76
2021/09/14 00:05:35;;;;;;;17.08;11.48;;;;;;;16.63;100.00;100084.38;6298148;28;20111;-73
2021/09/14 00:08:36;;;;;;;17.10;10.67;;;;;;;16.65;100.00;100076.34;6299191;28;20414;-73
2021/09/14 00:11:39;;;;;;;16.00;10.38;;;;;;;16.65;100.00;100078.97;6298087;28;20048;-73
2021/09/14 00:14:40;;;;;;;15.70;10.43;;;;;;;16.68;100.00;100086.63;6299089;28;20462;-75
2021/09/14 00:17:41;;;;;;;16.23;11.23;;;;;;;16.61;100.00;100074.94;6297997;28;20041;-75
2021/09/14 00:20:42;;;;;;;17.45;11.20;;;;;;;16.63;100.00;100083.53;6299039;28;20096;-75
2021/09/14 00:23:43;;;;;;;15.00;9.73;;;;;;;16.62;100.00;100079.25;6298877;28;20555;-75
2021/09/14 00:26:44;;;;;;;20.45;10.65;;;;;;;16.58;100.00;100075.22;6298899;28;20098;-75
2021/09/14 00:29:45;;;;;;;15.35;9.57;;;;;;;16.61;100.00;100078.41;6298687;28;20041;-73
2021/09/14 00:32:45;;;;;;;20.80;10.30;;;;;;;16.63;100.00;100081.72;6281246;28;20252;-73
2021/09/14 00:35:46;;;;;;;17.50;10.55;;;;;;;16.59;100.00;100072.44;6298599;28;20051;-73
2021/09/14 00:38:47;;;;;;;15.05;9.82;;;;;;;16.63;100.00;100076.47;6297564;28;20390;-73
2021/09/14 00:41:48;;;;;;;19.63;10.83;;;;;;;16.62;100.00;100072.19;6298463;28;20538;-73
2021/09/14 00:44:49;;;;;;;15.30;10.38;;;;;;;16.66;100.00;100080.66;6296084;28;20040;-75
2021/09/14 00:47:50;;;;;;;19.58;10.77;;;;;;;16.65;100.00;100085.06;6297150;28;20045;-73
2021/09/14 00:50:51;;;;;;;17.23;10.05;;;;;;;16.59;100.00;100080.31;6280421;28;20049;-75
2021/09/14 00:53:52;;;;;;;14.77;10.05;;;;;;;16.60;100.00;100087.28;6264403;28;20052;-75
2021/09/14 00:56:55;;;;;;;18.33;10.90;;;;;;;16.53;100.00;100083.50;6297098;28;20044;-76
2021/09/14 00:59:56;;;;;;;15.43;10.45;;;;;;;16.47;100.00;100082.22;6296997;28;20045;-76
2021/09/14 01:02:57;;;;;;;13.77;10.23;;;;;;;16.48;100.00;100083.88;6296714;28;20348;-73
2021/09/14 01:05:58;;;;;;;17.30;10.25;;;;;;;16.48;100.00;100088.31;6296794;28;20411;-73
2021/09/14 01:09:03;;;;;;;12.85;9.90;;;;;;;16.45;100.00;100089.44;6297921;28;20040;-75
2021/09/14 01:12:05;;;;;;;13.93;10.00;;;;;;;16.43;100.00;100086.09;6297814;28;20036;-75
2021/09/14 01:15:06;;;;;;;;;;;;;;;16.43;100.00;100087.88;6298261;28;20036;-76
2021/09/14 01:18:07;;;;;;;14.40;9.15;;;;;;;16.39;100.00;100089.94;6279819;28;19935;-75
2021/09/14 01:21:08;;;;;;;15.48;9.45;;;;;;;16.36;100.00;100086.75;6279862;28;20502;-75
2021/09/14 01:24:10;;;;;;;13.43;9.38;;;;;;;16.37;100.00;100088.38;6279933;28;20068;-76
2021/09/14 01:27:11;;;;;;;11.98;9.15;;;;;;;16.34;100.00;100089.50;6297513;28;20097;-75
2021/09/14 01:33:15;;;;;;;;;;;;;;;16.34;100.00;100092.13;6296653;28;20055;-75
2021/09/14 01:36:18;;;;;;;10.57;8.27;;;;;;;16.35;100.00;100092.94;6295934;28;19944;-73
2021/09/14 01:39:18;;;;;;;12.77;8.77;;;;;;;16.37;100.00;100096.28;6297216;28;20118;-73
2021/09/14 01:42:20;;;;;;;16.75;9.55;;;;;;;16.35;100.00;100088.53;6295906;28;20483;-75
2021/09/14 01:45:22;;;;;;;11.75;8.55;;;;;;;16.32;100.00;100097.50;6297097;28;20390;-76
2021/09/14 01:48:23;;;;;;;15.75;9.43;;;;;;;16.30;100.00;100088.91;6296872;28;20064;-75
2021/09/14 01:51:24;;;;;;;15.88;10.00;;;;;;;16.31;100.00;100097.66;6296564;28;20398;-73
2021/09/14 01:54:25;;;;;;;11.40;8.95;;;;;;;16.32;100.00;100091.41;6295736;28;20040;-73
2021/09/14 01:57:31;;;;;;;14.07;9.70;;;;;;;16.38;100.00;100095.34;6296390;28;20086;-74
2021/09/14 02:00:35;;;;;;;13.75;9.85;;;;;;;16.38;100.00;100097.97;6295599;28;20133;-73
2021/09/14 02:59:32;;;;;;;16.13;11.45;;;;;;;16.17;100.00;100076.94;6279500;28;20048;-73
2021/09/14 03:02:34;;;;;;;16.63;11.23;;;;;;;16.25;100.00;100088.47;6277791;28;20278;-73
2021/09/14 03:05:35;;;;;;;16.33;11.93;;;;;;;16.16;100.00;100083.13;6261383;28;20537;-76
2021/09/14 03:08:38;;;;;;;16.48;12.50;;;;;;;16.16;100.00;100085.78;6293475;28;20044;-75
2021/09/14 03:11:38;;;;;;;21.42;12.95;;;;;;;16.12;100.00;100095.72;6294251;28;20498;-75
2021/09/14 03:14:39;;;;;;;18.35;12.15;;;;;;;16.12;100.00;100093.09;6295339;28;20044;-76
2021/09/14 03:17:40;;;;;;;16.75;12.48;;;;;;;16.14;100.00;100080.63;6277546;28;20151;-76
2021/09/14 03:20:41;;;;;;;17.95;13.20;;;;;;;16.13;100.00;100088.69;6294074;28;20052;-75
2021/09/14 03:23:42;;;;;;;19.15;13.35;;;;;;;16.10;100.00;100082.72;6294004;28;20501;-75
2021/09/14 03:26:42;;;;;;;18.52;12.25;;;;;;;16.16;100.00;100091.88;6293915;28;20495;-75
2021/09/14 03:29:43;;;;;;;20.27;13.25;;;;;;;16.13;100.00;100096.56;6277281;28;20049;-75
2021/09/14 03:32:44;;;;;;;17.20;13.07;;;;;;;16.11;100.00;100100.16;6293850;28;20113;-76
2021/09/14 03:35:45;;;;;;;17.58;13.65;;;;;;;16.09;100.00;100106.50;6295053;28;20101;-75
2021/09/14 03:38:46;;;;;;;18.30;13.65;;;;;;;16.06;100.00;100106.75;6293903;28;20042;-76
2021/09/14 03:41:46;;;;;;;23.48;13.35;;;;;;;16.04;100.00;100106.06;6294874;28;20071;-72
2021/09/14 03:44:47;;;;;;;15.55;12.73;;;;;;;15.98;100.00;100099.53;6293721;28;20499;-73
2021/09/14 03:47:48;;;;;;;17.27;13.18;;;;;;;16.02;100.00;100106.19;6277139;28;20131;-73
2021/09/14 03:50:49;;;;;;;16.90;13.25;;;;;;;16.02;100.00;100114.09;6294953;28;20056;-75
2021/09/14 03:53:50;;;;;;;19.48;13.90;;;;;;;15.97;100.00;100118.88;6293475;28;20044;-75
2021/09/14 03:56:51;;;;;;;19.02;14.43;;;;;;;15.92;100.00;100126.34;6276980;28;20037;-76
2021/09/14 03:59:51;;;;;;;20.05;13.20;;;;;;;15.93;100.00;100128.00;6276629;28;20045;-75
2021/09/14 04:03:05;;;;;;;16.65;13.02;;;;;;;15.90;100.00;100128.25;6277625;28;20041;-76
2021/09/14 04:09:30;;;;;;;19.33;13.60;;;;;;;15.94;100.00;100134.94;6271317;28;20041;-76
2021/09/14 04:12:31;;;;;;;21.08;14.70;;;;;;;15.88;100.00;100131.00;6270241;28;20072;-75
2021/09/14 04:15:32;;;;;;;19.45;14.20;;;;;;;15.94;100.00;100139.34;6274131;28;20048;-75
2021/09/14 04:18:33;;;;;;;21.50;14.57;;;;;;;15.95;100.00;100141.88;6277395;28;20135;-76
2021/09/14 04:21:34;;;;;;;19.73;14.10;;;;;;;15.97;100.00;100144.38;6285923;28;20047;-75
2021/09/14 04:24:34;;;;;;;16.08;13.82;;;;;;;15.97;100.00;100147.84;6292731;28;20548;-75
2021/09/14 04:27:35;;;;;;;17.70;13.57;;;;;;;15.99;100.00;100151.19;6272924;28;20500;-75
2021/09/14 04:30:36;;;;;;;21.00;14.68;;;;;;;16.03;100.00;100146.50;6273870;28;20399;-74
2021/09/14 04:33:38;;;;;;;19.40;14.32;;;;;;;16.06;100.00;100141.81;6277322;28;20051;-75
2021/09/14 04:36:39;;;;;;;21.30;14.02;;;;;;;16.08;100.00;100145.16;6297590;28;20042;-73
2021/09/14 04:39:40;;;;;;;21.33;14.35;;;;;;;16.07;100.00;100143.47;6280761;28;20044;-73
2021/09/14 04:42:40;;;;;;;19.80;13.85;;;;;;;16.06;100.00;100144.47;6298645;28;20051;-73
2021/09/14 04:45:41;;;;;;;19.80;13.90;;;;;;;16.06;100.00;100154.13;6280785;28;20742;-73
2021/09/14 04:48:42;;;;;;;21.42;15.05;;;;;;;16.03;100.00;100149.97;6296998;28;20040;-73
2021/09/14 04:51:43;;;;;;;19.45;13.73;;;;;;;16.05;100.00;100152.47;6285225;28;20055;-75
2021/09/14 04:54:44;;;;;;;20.90;14.27;;;;;;;16.05;100.00;100152.47;6283933;28;20056;-78
2021/09/14 04:57:45;;;;;;;21.10;14.77;;;;;;;16.09;100.00;100165.25;6289969;28;20037;-78
2021/09/14 05:00:45;;;;;;;18.75;14.73;;;;;;;16.05;100.00;100166.47;6286465;28;20068;-78
2021/09/14 05:03:48;;;;;;;22.92;14.40;;;;;;;16.05;100.00;100163.81;6294980;28;20040;-75
2021/09/14 05:06:48;;;;;;;;;;;;;;;16.06;100.00;100176.03;6274027;28;20045;-75
2021/09/14 05:09:49;;;;;;;22.17;14.35;;;;;;;16.10;100.00;100172.19;6272221;28;19921;-75
2021/09/14 05:12:50;;;;;;;25.40;15.05;;;;;;;16.20;100.00;100168.78;6271443;28;20044;-73
2021/09/14 05:15:52;;;;;;;21.27;15.95;;;;;;;16.20;100.00;100168.78;6255032;28;20293;-73
2021/09/14 05:18:53;;;;;;;22.77;15.27;;;;;;;16.30;100.00;100172.34;6254993;28;20557;-73
2021/09/14 05:21:53;;;;;;;23.77;15.83;;;;;;;16.39;100.00;100174.22;6271306;28;20047;-75
2021/09/14 05:24:54;;;;;;;21.65;15.43;;;;;;;16.50;100.00;100168.03;6271436;28;20041;-75
2021/09/14 05:27:55;;;;;;;21.70;14.63;;;;;;;16.52;100.00;100179.28;6271270;28;20053;-76
2021/09/14 05:30:58;;;;;;;19.17;14.75;;;;;;;16.55;100.00;100165.84;6270193;28;20041;-76
2021/09/14 05:33:59;;;;;;;25.85;15.23;;;;;;;16.61;100.00;100169.75;6270949;28;20044;-73
2021/09/14 05:37:00;;;;;;;21.67;14.85;;;;;;;16.76;100.00;100168.47;6271031;28;20044;-73
2021/09/14 05:40:01;;;;;;;24.02;13.95;;;;;;;16.81;100.00;100166.31;6271953;28;20049;-75
2021/09/14 05:43:04;;;;;;;19.63;14.50;;;;;;;16.87;100.00;100167.59;6254365;28;20060;-73
2021/09/14 05:46:05;;;;;;;19.83;13.20;;;;;;;16.95;100.00;100166.94;6271977;28;20036;-73
2021/09/14 05:49:06;;;;;;;19.25;13.50;;;;;;;17.06;100.00;100172.09;6270734;28;20110;-73
2021/09/14 05:52:07;;;;;;;17.07;12.27;;;;;;;17.18;100.00;100164.94;6271685;28;20407;-73
2021/09/14 05:55:08;;;;;;;17.48;12.10;;;;;;;17.24;100.00;100177.59;6254058;28;20286;-74
2021/09/14 05:58:09;;;;;;;18.90;12.18;;;;;;;17.31;100.00;100176.91;6253921;28;20037;-75
2021/09/14 06:01:10;;;;;;;21.13;12.13;;;;;;;17.32;100.00;100177.75;6270359;28;20506;-73
2021/09/14 06:04:11;;;;;;;15.90;11.70;;;;;;;17.38;100.00;100174.59;6253806;28;20051;-73
2021/09/14 06:07:12;;;;;;;17.38;12.02;;;;;;;17.45;100.00;100180.97;6270154;28;20049;-75
2021/09/14 06:10:14;;;;;;;16.00;12.30;;;;;;;17.60;100.00;100183.25;6253626;28;20045;-76
2021/09/14 06:13:15;;;;;;;16.97;12.07;;;;;;;17.71;100.00;100177.84;6253385;28;20305;-76
2021/09/14 06:16:16;;;;;;;17.38;10.65;;;;;;;17.78;100.00;100189.53;6271223;28;20288;-76
2021/09/14 06:19:17;;;;;;;11.52;9.65;;;;;;;17.85;100.00;100192.47;6270163;28;20384;-73
2021/09/14 06:22:20;;;;;;;13.82;10.30;;;;;;;17.96;100.00;100200.28;6269860;28;20053;-73
2021/09/14 06:25:21;;;;;;;16.27;10.32;;;;;;;18.04;100.00;100204.88;6253642;28;20495;-76
2021/09/14 06:28:22;;;;;;;17.03;10.73;;;;;;;18.18;100.00;100212.38;6253204;28;20041;-73
2021/09/14 06:31:22;;;;;;;13.73;9.73;;;;;;;18.28;100.00;100212.38;6270997;28;20103;-73
2021/09/14 06:34:23;;;;;;;23.50;14.65;;;;;;;18.37;100.00;100205.44;6253129;28;20056;-75
2021/09/14 06:37:24;;;;;;;14.52;10.82;;;;;;;18.46;100.00;100201.94;6270944;28;20124;-76
2021/09/14 06:40:25;;;;;;;15.20;9.73;;;;;;;18.59;100.00;100201.63;6269441;28;20381;-75
2021/09/14 06:43:26;;;;;;;14.43;10.10;;;;;;;18.68;100.00;100216.66;6268596;28;20408;-75
2021/09/14 06:46:27;;;;;;;15.90;10.30;;;;;;;18.73;100.00;100204.66;6269434;28;20057;-76
2021/09/14 06:49:29;;;;;;;13.53;9.77;;;;;;;18.80;100.00;100202.31;6269171;28;20103;-75
2021/09/14 06:52:29;;;;;;;;;;;;;;;18.90;100.00;100210.22;6269673;28;20106;-75
2021/09/14 06:55:30;;;;;;;12.57;9.30;;;;;;;19.01;100.00;100203.94;6269318;28;19920;-75
2021/09/14 06:58:31;;;;;;;12.30;9.33;;;;;;;19.08;100.00;100203.19;6270581;28;20139;-76
2021/09/14 07:01:32;;;;;;;10.82;9.07;;;;;;;19.18;100.00;100199.69;6270414;28;20045;-75
2021/09/14 07:04:33;;;;;;;10.90;8.70;;;;;;;19.26;100.00;100197.97;6270359;28;20067;-73
2021/09/14 07:07:34;;;;;;;11.83;9.10;;;;;;;19.43;100.00;100199.00;6270209;28;20479;-73
2021/09/14 07:10:35;;;;;;;11.67;8.50;;;;;;;19.58;100.00;100201.16;6269178;28;20052;-75
2021/09/14 07:13:36;;;;;;;13.20;8.50;;;;;;;19.71;100.00;100199.84;6270201;28;20476;-75
2021/09/14 07:16:37;;;;;;;9.77;8.13;;;;;;;19.81;100.00;100210.38;6269078;28;20048;-73
2021/09/14 07:19:38;;;;;;;12.43;8.55;;;;;;;19.87;100.00;100204.50;6270695;28;20048;-74
2021/09/14 07:22:39;;;;;;;10.67;8.50;;;;;;;20.02;100.00;100206.63;6270019;28;20086;-76
2021/09/14 07:25:43;;;;;;;9.75;7.72;;;;;;;20.03;99.80;100195.84;6269021;28;20411;-76
2021/09/14 07:28:43;;;;;;;13.98;7.97;;;;;;;20.20;95.27;100203.94;6268819;28;20049;-76
2021/09/14 07:31:45;;;;;;;11.77;7.97;;;;;;;20.26;97.95;100211.28;6270138;28;20044;-74
2021/09/14 07:34:46;;;;;;;10.57;8.13;;;;;;;20.42;95.94;100215.91;6268655;28;20385;-73
2021/09/14 07:37:47;;;;;;;9.17;7.53;;;;;;;20.51;94.17;100213.16;6268898;28;20044;-76
2021/09/14 07:40:48;;;;;;;10.90;7.43;;;;;;;20.74;89.39;100218.00;6269651;28;20045;-74
2021/09/14 07:43:49;;;;;;;15.20;7.77;;;;;;;21.05;92.09;100214.88;6268619;28;20044;-73
2021/09/14 07:46:50;;;;;;;10.87;7.43;;;;;;;21.05;90.88;100228.97;6268595;28;20041;-74
2021/09/14 07:49:51;;;;;;;15.30;8.05;;;;;;;21.02;89.49;100216.00;6269377;28;20399;-77
2021/09/14 07:52:52;;;;;;;10.33;8.10;;;;;;;20.93;89.48;100219.59;6268771;28;20044;-76
2021/09/14 07:55:53;;;;;;;9.97;7.60;;;;;;;20.90;92.68;100223.41;6274391;28;20045;-76
2021/09/14 07:58:54;;;;;;;11.17;7.60;;;;;;;20.89;90.43;100219.09;6274510;28;20269;-76
2021/09/14 08:01:54;;;;;;;16.23;7.87;;;;;;;21.04;90.75;100215.84;6273156;28;20044;-76
2021/09/14 08:04:55;;;;;;;17.55;6.97;;;;;;;21.09;85.45;100213.56;6273232;28;20040;-76
2021/09/14 08:07:56;;;;;;;9.90;6.57;;;;;;;21.20;85.82;100218.59;6274175;28;20060;-74
2021/09/14 08:10:57;;;;;;;11.30;7.07;;;;;;;21.27;84.81;100216.97;6274087;28;20049;-74
2021/09/14 08:13:58;;;;;;;9.57;6.73;;;;;;;21.34;85.40;100218.00;6256289;28;20119;-74
2021/09/14 08:17:00;;;;;;;9.97;7.37;;;;;;;21.43;82.51;100210.09;6272697;28;20048;-74
2021/09/14 08:20:03;;;;;;;7.57;6.40;;;;;;;21.57;80.76;100219.28;6256279;28;20407;-76
2021/09/14 08:23:03;;;;;;;9.48;7.00;;;;;;;21.73;83.40;100209.53;6273751;28;20075;-76
2021/09/14 08:26:04;;;;;;;7.97;6.20;;;;;;;21.76;78.63;100215.50;6273856;28;20399;-76
2021/09/14 08:29:06;;;;;;;8.57;6.10;;;;;;;21.76;77.99;100213.66;6239302;28;20052;-73
2021/09/14 08:32:07;;;;;;;10.15;6.22;;;;;;;21.97;79.39;100218.56;6273658;28;20087;-74
2021/09/14 08:35:08;;;;;;;8.27;6.25;;;;;;;22.00;78.41;100217.38;6273720;28;20037;-76
2021/09/14 08:38:09;;;;;;;13.13;6.20;;;;;;;21.92;78.38;100221.69;6272449;28;20037;-76
2021/09/14 08:41:15;;;;;;;10.63;6.10;;;;;;;22.25;75.13;100215.63;6272351;28;20041;-76
2021/09/14 08:44:16;;;;;;;7.57;5.43;;;;;;;22.67;72.17;100218.09;6273484;28;20452;-77
2021/09/14 08:47:20;;;;;;;9.02;5.75;;;;;;;22.72;72.49;100217.59;6255672;28;20041;-76
2021/09/14 08:50:23;;;;;;;8.75;5.72;;;;;;;22.69;72.66;100212.59;6273104;28;20060;-77
2021/09/14 08:53:24;;;;;;;7.07;5.40;;;;;;;23.13;70.76;100215.69;6273299;28;20064;-77
2021/09/14 08:56:25;;;;;;;12.47;5.67;;;;;;;23.23;65.33;100209.34;6273201;28;20480;-76
2021/09/14 08:59:28;;;;;;;10.60;5.40;;;;;;;23.42;66.79;100205.44;6273149;28;20045;-77
2021/09/14 09:02:29;;;;;;;6.75;4.95;;;;;;;23.68;62.26;100211.28;6273032;28;20347;-75
2021/09/14 09:05:32;;;;;;;7.47;5.20;;;;;;;23.75;64.61;100208.75;6270739;28;20484;-73
2021/09/14 09:08:34;;;;;;;6.30;4.93;;;;;;;23.52;65.71;100208.72;6304881;28;20045;-73
2021/09/14 09:11:35;;;;;;;7.20;5.43;;;;;;;23.49;67.33;100214.38;6271617;28;20110;-76
2021/09/14 09:14:41;;;;;;;6.80;5.43;;;;;;;23.51;68.90;100212.38;6272912;28;20491;-76
2021/09/14 09:17:45;;;;;;;7.13;4.07;;;;;;;23.65;60.24;100211.63;6271528;28;20049;-76
2021/09/14 09:20:48;;;;;;;6.57;4.97;;;;;;;23.41;60.66;100211.75;6272562;28;20044;-73
2021/09/14 09:23:58;;;;;;;10.77;5.10;;;;;;;23.68;60.83;100207.78;6272644;28;20041;-73
2021/09/14 09:26:59;;;;;;;6.40;4.97;;;;;;;23.99;61.62;100206.94;6254872;28;20045;-76
2021/09/14 09:30:08;;;;;;;5.50;4.63;;;;;;;24.07;57.50;100209.56;6271210;28;20049;-75
2021/09/14 09:33:11;;;;;;;5.95;4.50;;;;;;;24.50;58.78;100205.44;6272700;28;20044;-76
2021/09/14 09:36:12;;;;;;;5.32;4.47;;;;;;;24.53;55.92;100215.72;6271052;28;20037;-74
2021/09/14 09:39:15;;;;;;;9.43;5.00;;;;;;;24.23;56.01;100205.94;6254317;28;20424;-74
2021/09/14 09:42:16;;;;;;;9.27;4.55;;;;;;;24.09;56.23;100205.72;6272007;28;20780;-73
2021/09/14 09:45:18;;;;;;;7.43;4.50;;;;;;;24.36;54.45;100200.00;6272044;28;20120;-73
2021/09/14 09:48:19;;;;;;;6.10;4.13;;;;;;;24.71;50.63;100194.06;6270599;28;20068;-74
2021/09/14 09:51:21;;;;;;;5.18;4.32;;;;;;;24.88;52.61;100199.22;6253767;28;20057;-73
2021/09/14 09:54:22;;;;;;;;;;;;;;;25.10;54.91;100202.78;6254585;28;20056;-74
2021/09/14 09:57:24;;;;;;;5.77;4.47;;;;;;;25.40;53.46;100187.59;6270511;28;19920;-73
2021/09/14 10:00:25;;;;;;;10.50;4.55;;;;;;;25.79;52.81;100193.59;6270464;28;20040;-73
2021/09/14 10:03:27;;;;;;;;;;;;;;;25.96;50.95;100186.19;6271914;28;20040;-73
2021/09/14 10:06:30;;;;;;;9.02;4.78;;;;;;;26.04;54.68;100189.53;6270280;28;19921;-74
2021/09/14 10:09:32;;;;;;;7.70;4.70;;;;;;;26.40;51.80;100185.13;6271320;28;20062;-73
2021/09/14 10:12:34;;;;;;;7.45;4.80;;;;;;;26.57;49.76;100183.00;6269984;28;20045;-73
2021/09/14 10:15:41;;;;;;;5.13;4.60;;;;;;;26.21;50.92;100176.75;6271143;28;20133;-76
2021/09/14 10:18:42;;;;;;;6.80;4.57;;;;;;;26.31;52.24;100177.22;6269786;28;20128;-75
2021/09/14 10:21:59;;;;;;;5.68;4.10;;;;;;;26.38;50.35;100179.13;6271069;28;20044;-76
2021/09/14 10:25:02;;;;;;;6.22;4.50;;;;;;;26.27;48.75;100175.97;6269919;28;20040;-74
2021/09/14 10:28:12;;;;;;;7.55;4.72;;;;;;;26.13;50.83;100176.91;6269795;28;20099;-74
2021/09/14 10:31:28;;;;;;;6.65;5.03;;;;;;;26.20;52.63;100171.59;6269690;28;20537;-73
2021/09/14 10:34:28;;;;;;;6.38;4.78;;;;;;;26.62;50.92;100168.03;6269616;28;20040;-76
2021/09/14 10:37:34;;;;;;;6.90;4.60;;;;;;;26.92;51.93;100160.59;6236938;28;20513;-76
2021/09/14 10:40:48;;;;;;;7.63;4.15;;;;;;;27.17;48.33;100167.31;6269619;28;20045;-76
2021/09/14 10:43:57;;;;;;;5.10;3.80;;;;;;;26.88;50.62;100167.38;6270838;28;20037;-74
2021/09/14 10:47:05;;;;;;;8.43;4.40;;;;;;;27.02;48.18;100168.28;6269636;28;20037;-74
2021/09/14 10:50:08;;;;;;;6.00;4.30;;;;;;;26.93;47.96;100161.41;6270322;28;20041;-76
2021/09/14 10:53:24;;;;;;;6.50;4.80;;;;;;;27.15;47.84;100167.50;6285805;28;20052;-73
2021/09/14 10:56:28;;;;;;;6.15;4.50;;;;;;;27.07;47.43;100165.00;6270408;28;20049;-73
2021/09/14 10:59:28;;;;;;;6.65;4.25;;;;;;;26.89;47.66;100158.31;6270345;28;20071;-74
2021/09/14 11:02:29;;;;;;;7.72;4.50;;;;;;;27.03;46.87;100151.16;6252643;28;20037;-74
2021/09/14 11:05:35;;;;;;;7.15;4.35;;;;;;;27.18;47.90;100159.09;6269049;28;20044;-74
2021/09/14 11:08:36;;;;;;;5.07;4.07;;;;;;;27.10;45.10;100157.38;6269021;28;20410;-74
2021/09/14 11:11:36;;;;;;;6.35;4.32;;;;;;;27.10;46.36;100154.72;6269036;28;20099;-73
2021/09/14 11:14:37;;;;;;;5.20;3.78;;;;;;;27.20;46.21;100154.34;6268886;28;20044;-73
2021/09/14 11:17:38;;;;;;;5.88;4.25;;;;;;;27.23;44.61;100162.00;6270122;28;20251;-74
2021/09/14 11:20:39;;;;;;;4.45;4.03;;;;;;;27.16;45.46;100158.47;6236009;28;20048;-74
2021/09/14 11:23:48;;;;;;;9.18;4.30;;;;;;;27.58;45.73;100153.06;6235904;28;20143;-73
2021/09/14 11:26:49;;;;;;;7.00;4.47;;;;;;;27.86;47.67;100153.75;6268663;28;20048;-74
2021/09/14 11:29:50;;;;;;;9.30;4.45;;;;;;;27.96;44.03;100153.34;6272153;28;20047;-74
2021/09/14 11:32:52;;;;;;;5.90;4.10;;;;;;;27.98;43.16;100155.81;6257307;28;20041;-73
2021/09/14 11:35:55;;;;;;;4.43;3.83;;;;;;;27.87;43.54;100154.56;6275219;28;20044;-74
2021/09/14 11:39:05;;;;;;;6.43;3.70;;;;;;;28.05;45.79;100145.94;6273809;28;20289;-73
2021/09/14 11:42:09;;;;;;;5.03;4.05;;;;;;;28.03;45.45;100142.63;6290375;28;20045;-74
2021/09/14 11:45:10;;;;;;;5.07;3.90;;;;;;;28.33;43.23;100135.81;6257184;28;20091;-76
2021/09/14 11:48:16;;;;;;;5.30;4.38;;;;;;;28.45;45.10;100137.84;6274809;28;20045;-76
2021/09/14 11:51:18;;;;;;;8.88;3.92;;;;;;;28.45;43.92;100137.84;6256669;28;20053;-76
2021/09/14 11:54:21;;;;;;;6.05;3.83;;;;;;;28.75;44.96;100143.59;6273498;28;20042;-76
2021/09/14 11:57:23;;;;;;;6.63;4.40;;;;;;;28.20;42.54;100146.53;6257557;28;20065;-73
2021/09/14 12:00:45;;;;;;;6.82;4.45;;;;;;;27.36;43.57;100138.97;6274525;28;20114;-74
2021/09/14 12:03:50;;;;;;;6.15;4.30;;;;;;;26.83;44.65;100140.38;6274324;28;20120;-76
2021/09/14 12:06:53;;;;;;;8.50;4.15;;;;;;;26.65;45.02;100140.06;6274747;28;20127;-76
2021/09/14 12:10:04;;;;;;;8.02;4.35;;;;;;;26.27;47.70;100135.03;6256369;28;20048;-76
2021/09/14 12:13:14;;;;;;;9.00;3.78;;;;;;;26.13;46.46;100132.25;6272952;28;20048;-76
2021/09/14 12:16:25;;;;;;;6.75;4.25;;;;;;;25.96;48.20;100136.22;6306430;28;20795;-76
2021/09/14 12:19:26;;;;;;;5.32;4.10;;;;;;;25.87;48.28;100135.50;6257280;28;20094;-75
2021/09/14 12:22:27;;;;;;;;;;;;;;;25.84;49.47;100127.03;6273225;28;20545;-76
2021/09/14 12:25:27;;;;;;;7.23;4.60;;;;;;;25.86;50.59;100124.97;6289352;28;20023;-76
2021/09/14 12:28:28;;;;;;;7.45;4.82;;;;;;;25.93;47.62;100120.56;6256016;28;20466;-76
2021/09/14 12:31:30;;;;;;;7.15;4.38;;;;;;;26.23;50.31;100128.41;6272665;28;20040;-76
2021/09/14 12:34:31;;;;;;;9.85;4.07;;;;;;;26.59;45.89;100128.28;6272479;28;20476;-76
2021/09/14 12:37:32;;;;;;;9.95;4.35;;;;;;;26.85;48.77;100130.31;6273685;28;20048;-76
2021/09/14 12:40:33;;;;;;;5.53;3.85;;;;;;;26.89;42.75;100120.84;6255722;28;20072;-77
2021/09/14 12:43:34;;;;;;;8.25;4.13;;;;;;;27.01;42.85;100118.41;6255672;28;20045;-78
2021/09/14 12:46:35;;;;;;;6.82;4.07;;;;;;;26.65;43.90;100122.16;6272548;28;20053;-78
2021/09/14 12:49:35;;;;;;;4.72;3.97;;;;;;;26.25;46.73;100107.66;6273532;28;20037;-78
2021/09/14 12:52:36;;;;;;;7.30;4.10;;;;;;;26.33;45.25;100111.00;6255474;28;20053;-78
2021/09/14 12:55:38;;;;;;;7.30;3.90;;;;;;;26.59;43.90;100104.22;6272088;28;20037;-78
2021/09/14 12:58:39;;;;;;;10.07;3.78;;;;;;;26.68;43.78;100105.69;6272065;28;20044;-78
2021/09/14 13:01:40;;;;;;;;;;;;;;;26.81;44.11;100104.09;6273648;28;20044;-78
2021/09/14 13:04:40;;;;;;;6.43;4.00;;;;;;;26.85;44.35;100100.84;6273110;28;19920;-78
2021/09/14 13:07:41;;;;;;;6.78;4.20;;;;;;;26.91;43.43;100109.91;6272994;28;20044;-78
2021/09/14 13:10:42;;;;;;;7.38;4.00;;;;;;;26.66;44.75;100110.41;6272754;28;20041;-78
2021/09/14 13:17:02;;;;;;;7.18;4.15;;;;;;;26.41;44.09;100102.00;6271689;28;20094;-78
2021/09/14 13:20:03;;;;;;;5.47;4.15;;;;;;;26.52;42.78;100104.16;6271441;28;20049;-78
2021/09/14 13:23:04;;;;;;;4.63;3.90;;;;;;;26.40;45.13;100103.03;6272482;28;20045;-78
2021/09/14 13:26:06;;;;;;;8.30;4.30;;;;;;;26.22;47.01;100105.38;6254727;28;20041;-78
2021/09/14 13:29:07;;;;;;;6.78;4.40;;;;;;;26.00;46.06;100096.56;6271077;28;20119;-78
2021/09/14 13:32:08;;;;;;;6.68;4.30;;;;;;;25.98;45.57;100090.59;6254736;28;20045;-76
2021/09/14 13:35:09;;;;;;;8.52;4.43;;;;;;;25.98;46.38;100091.41;6272309;28;20037;-77
2021/09/14 13:38:10;;;;;;;8.45;4.68;;;;;;;26.17;45.75;100094.44;6271174;28;20100;-77
2021/09/14 13:41:14;;;;;;;6.68;4.25;;;;;;;26.08;46.22;100093.75;6270998;28;20045;-78
2021/09/14 13:47:28;;;;;;;5.50;4.20;;;;;;;26.02;46.16;100087.31;6272123;28;20037;-78
2021/09/14 13:50:30;;;;;;;11.13;4.22;;;;;;;26.01;45.79;100099.06;6270745;28;20057;-76
2021/09/14 13:53:32;;;;;;;5.05;4.35;;;;;;;25.98;45.51;100090.59;6270380;28;20041;-78
2021/09/14 13:56:34;;;;;;;7.25;4.35;;;;;;;25.97;45.56;100100.47;6270702;28;20089;-78
2021/09/14 13:59:35;;;;;;;10.43;4.32;;;;;;;25.86;47.25;100091.09;6272128;28;20045;-78
2021/09/14 14:02:36;;;;;;;;;;;;;;;25.82;49.34;100097.84;6272107;28;20068;-78
2021/09/14 14:05:37;;;;;;;8.57;4.90;;;;;;;25.74;46.22;100098.78;6270514;28;19920;-78
2021/09/14 14:08:37;;;;;;;5.57;4.50;;;;;;;25.71;46.39;100093.81;6271347;28;20037;-78
2021/09/14 14:11:38;;;;;;;7.13;4.00;;;;;;;25.60;46.81;100099.69;6237267;28;20056;-78
2021/09/14 14:14:39;;;;;;;11.30;4.35;;;;;;;25.61;46.52;100098.66;6237145;28;20364;-78
2021/09/14 14:17:40;;;;;;;9.00;4.32;;;;;;;25.55;48.15;100091.41;6271499;28;20037;-78
2021/09/14 14:20:41;;;;;;;5.75;4.40;;;;;;;25.49;46.74;100087.66;6270233;28;20114;-78
2021/09/14 14:23:42;;;;;;;7.75;4.50;;;;;;;25.44;46.97;100103.41;6270165;28;20798;-78
2021/09/14 14:26:43;;;;;;;12.18;4.43;;;;;;;25.29;46.67;100095.47;6269949;28;20049;-76
2021/09/14 14:29:44;;;;;;;13.32;4.63;;;;;;;25.24;47.29;100094.38;6270630;28;20037;-75
2021/09/14 14:32:45;;;;;;;9.63;4.35;;;;;;;25.21;47.56;100094.75;6268311;28;20048;-74
2021/09/14 14:35:47;;;;;;;5.28;4.03;;;;;;;25.09;48.05;100095.19;6253118;28;20052;-74
2021/09/14 14:38:48;;;;;;;6.13;4.05;;;;;;;25.04;48.76;100094.94;6237125;28;20037;-75
2021/09/14 14:41:52;;;;;;;5.72;4.25;;;;;;;24.99;49.72;100093.84;6269523;28;20041;-75
2021/09/14 14:44:53;;;;;;;;;;;;;;;24.97;49.76;100095.88;6269878;28;20086;-75
2021/09/14 14:47:54;;;;;;;6.53;4.33;;;;;;;24.91;49.14;100097.44;6269641;28;19925;-75
2021/09/14 14:50:56;;;;;;;8.07;4.50;;;;;;;24.91;50.37;100092.94;6269198;28;20071;-76
2021/09/14 14:53:56;;;;;;;8.23;4.43;;;;;;;24.90;49.87;100091.28;6252976;28;20045;-76
2021/09/14 14:56:57;;;;;;;9.00;4.68;;;;;;;24.92;48.59;100091.91;6269239;28;20048;-75
2021/09/14 14:59:58;;;;;;;4.40;4.00;;;;;;;24.98;49.55;100094.84;6269378;28;20513;-76
2021/09/14 15:02:59;;;;;;;5.85;4.28;;;;;;;24.94;49.98;100097.88;6251767;28;20159;-76
2021/09/14 15:06:00;;;;;;;10.05;4.70;;;;;;;24.92;49.54;100091.91;6269232;28;20052;-76